sensor_id;sensor_type;location;lat;lon;timestamp;P1;durP1;ratioP1;P2;durP2;ratioP2
60472;SDS011;46318;52.716;6.444;2023-04-03T00:00:13;2.17;;;1.55;;
60472;SDS011;46318;52.716;6.444;2023-04-03T00:02:40;2.45;;;1.80;;
60472;SDS011;46318;52.716;6.444;2023-04-03T00:05:06;2.42;;;1.63;;
60472;SDS011;46318;52.716;6.444;2023-04-03T00:07:32;2.95;;;1.90;;
60472;SDS011;46318;52.716;6.444;2023-04-03T00:09:58;2.15;;;1.80;;
60472;SDS011;46318;52.716;6.444;2023-04-03T00:12:24;2.95;;;1.77;;
60472;SDS011;46318;52.716;6.444;2023-04-03T00:14:49;5.55;;;2.10;;
60472;SDS011;46318;52.716;6.444;2023-04-03T00:17:15;2.53;;;1.60;;
60472;SDS011;46318;52.716;6.444;2023-04-03T00:19:41;2.35;;;1.50;;
60472;SDS011;46318;52.716;6.444;2023-04-03T00:22:07;3.28;;;1.75;;
60472;SDS011;46318;52.716;6.444;2023-04-03T00:24:33;3.45;;;1.95;;
60472;SDS011;46318;52.716;6.444;2023-04-03T00:26:58;3.55;;;1.80;;
60472;SDS011;46318;52.716;6.444;2023-04-03T00:29:24;2.65;;;1.75;;
60472;SDS011;46318;52.716;6.444;2023-04-03T00:31:50;3.60;;;1.63;;
60472;SDS011;46318;52.716;6.444;2023-04-03T00:34:16;3.00;;;1.75;;
60472;SDS011;46318;52.716;6.444;2023-04-03T00:36:42;2.47;;;1.60;;
60472;SDS011;46318;52.716;6.444;2023-04-03T00:39:08;1.90;;;1.60;;
60472;SDS011;46318;52.716;6.444;2023-04-03T00:41:33;2.63;;;1.67;;
60472;SDS011;46318;52.716;6.444;2023-04-03T00:44:00;3.05;;;1.50;;
60472;SDS011;46318;52.716;6.444;2023-04-03T00:46:26;3.80;;;1.67;;
60472;SDS011;46318;52.716;6.444;2023-04-03T00:48:51;4.07;;;1.67;;
60472;SDS011;46318;52.716;6.444;2023-04-03T00:51:19;3.35;;;1.40;;
60472;SDS011;46318;52.716;6.444;2023-04-03T00:53:50;3.33;;;1.88;;
60472;SDS011;46318;52.716;6.444;2023-04-03T00:56:24;3.47;;;2.28;;
60472;SDS011;46318;52.716;6.444;2023-04-03T01:01:22;2.28;;;1.67;;
60472;SDS011;46318;52.716;6.444;2023-04-03T01:03:51;2.60;;;1.75;;
60472;SDS011;46318;52.716;6.444;2023-04-03T01:06:19;2.63;;;1.65;;
60472;SDS011;46318;52.716;6.444;2023-04-03T01:08:51;3.42;;;1.95;;
60472;SDS011;46318;52.716;6.444;2023-04-03T01:11:18;2.60;;;1.45;;
60472;SDS011;46318;52.716;6.444;2023-04-03T01:13:46;3.78;;;1.73;;
60472;SDS011;46318;52.716;6.444;2023-04-03T01:16:12;3.60;;;1.65;;
60472;SDS011;46318;52.716;6.444;2023-04-03T01:18:38;1.70;;;1.60;;
60472;SDS011;46318;52.716;6.444;2023-04-03T01:26:57;2.60;;;1.90;;
60472;SDS011;46318;52.716;6.444;2023-04-03T01:29:23;4.50;;;1.80;;
60472;SDS011;46318;52.716;6.444;2023-04-03T01:31:58;3.97;;;1.90;;
60472;SDS011;46318;52.716;6.444;2023-04-03T01:34:26;4.60;;;1.73;;
60472;SDS011;46318;52.716;6.444;2023-04-03T01:36:53;4.03;;;2.00;;
60472;SDS011;46318;52.716;6.444;2023-04-03T01:39:19;3.60;;;1.75;;
60472;SDS011;46318;52.716;6.444;2023-04-03T01:41:46;2.97;;;2.00;;
60472;SDS011;46318;52.716;6.444;2023-04-03T01:44:12;3.67;;;1.98;;
60472;SDS011;46318;52.716;6.444;2023-04-03T01:46:39;3.22;;;1.77;;
60472;SDS011;46318;52.716;6.444;2023-04-03T01:49:06;3.92;;;1.88;;
60472;SDS011;46318;52.716;6.444;2023-04-03T01:51:32;3.60;;;2.00;;
60472;SDS011;46318;52.716;6.444;2023-04-03T01:53:58;3.47;;;2.10;;
60472;SDS011;46318;52.716;6.444;2023-04-03T01:56:24;4.07;;;2.30;;
60472;SDS011;46318;52.716;6.444;2023-04-03T01:58:50;4.72;;;2.22;;
60472;SDS011;46318;52.716;6.444;2023-04-03T02:01:16;5.15;;;1.83;;
60472;SDS011;46318;52.716;6.444;2023-04-03T02:03:42;3.63;;;2.30;;
60472;SDS011;46318;52.716;6.444;2023-04-03T02:06:07;5.65;;;2.13;;
60472;SDS011;46318;52.716;6.444;2023-04-03T02:08:33;5.03;;;2.15;;
60472;SDS011;46318;52.716;6.444;2023-04-03T02:10:59;3.85;;;1.92;;
60472;SDS011;46318;52.716;6.444;2023-04-03T02:13:25;3.78;;;1.98;;
60472;SDS011;46318;52.716;6.444;2023-04-03T02:15:51;4.20;;;2.00;;
60472;SDS011;46318;52.716;6.444;2023-04-03T02:18:17;3.78;;;2.30;;
60472;SDS011;46318;52.716;6.444;2023-04-03T02:20:43;3.35;;;1.90;;
60472;SDS011;46318;52.716;6.444;2023-04-03T02:23:09;4.82;;;2.10;;
60472;SDS011;46318;52.716;6.444;2023-04-03T02:25:35;4.57;;;2.25;;
60472;SDS011;46318;52.716;6.444;2023-04-03T02:28:01;4.47;;;2.60;;
60472;SDS011;46318;52.716;6.444;2023-04-03T02:30:27;5.72;;;2.60;;
60472;SDS011;46318;52.716;6.444;2023-04-03T02:32:53;5.80;;;2.20;;
60472;SDS011;46318;52.716;6.444;2023-04-03T02:35:19;4.70;;;2.47;;
60472;SDS011;46318;52.716;6.444;2023-04-03T02:37:45;4.10;;;2.53;;
60472;SDS011;46318;52.716;6.444;2023-04-03T02:40:11;5.95;;;2.38;;
60472;SDS011;46318;52.716;6.444;2023-04-03T02:42:37;4.60;;;2.53;;
60472;SDS011;46318;52.716;6.444;2023-04-03T02:45:03;4.88;;;2.72;;
60472;SDS011;46318;52.716;6.444;2023-04-03T02:47:30;4.20;;;2.30;;
60472;SDS011;46318;52.716;6.444;2023-04-03T02:49:56;6.25;;;2.63;;
60472;SDS011;46318;52.716;6.444;2023-04-03T02:52:21;4.90;;;2.67;;
60472;SDS011;46318;52.716;6.444;2023-04-03T02:54:47;5.15;;;2.70;;
60472;SDS011;46318;52.716;6.444;2023-04-03T02:57:13;3.95;;;2.38;;
60472;SDS011;46318;52.716;6.444;2023-04-03T02:59:39;6.75;;;2.40;;
60472;SDS011;46318;52.716;6.444;2023-04-03T03:02:06;5.35;;;2.88;;
60472;SDS011;46318;52.716;6.444;2023-04-03T03:04:33;4.22;;;2.70;;
60472;SDS011;46318;52.716;6.444;2023-04-03T03:06:59;5.00;;;2.72;;
60472;SDS011;46318;52.716;6.444;2023-04-03T03:09:25;4.15;;;2.58;;
60472;SDS011;46318;52.716;6.444;2023-04-03T03:11:51;3.70;;;2.80;;
60472;SDS011;46318;52.716;6.444;2023-04-03T03:14:17;5.70;;;3.00;;
60472;SDS011;46318;52.716;6.444;2023-04-03T03:16:43;5.80;;;2.67;;
60472;SDS011;46318;52.716;6.444;2023-04-03T03:19:09;5.18;;;3.13;;
60472;SDS011;46318;52.716;6.444;2023-04-03T03:21:35;6.18;;;2.60;;
60472;SDS011;46318;52.716;6.444;2023-04-03T03:24:01;6.00;;;2.88;;
60472;SDS011;46318;52.716;6.444;2023-04-03T03:26:27;5.38;;;2.75;;
60472;SDS011;46318;52.716;6.444;2023-04-03T03:28:53;6.70;;;3.25;;
60472;SDS011;46318;52.716;6.444;2023-04-03T03:31:19;4.72;;;2.70;;
60472;SDS011;46318;52.716;6.444;2023-04-03T03:33:45;4.97;;;2.55;;
60472;SDS011;46318;52.716;6.444;2023-04-03T03:36:11;5.68;;;2.95;;
60472;SDS011;46318;52.716;6.444;2023-04-03T03:38:37;7.10;;;2.88;;
60472;SDS011;46318;52.716;6.444;2023-04-03T03:41:03;3.80;;;2.30;;
60472;SDS011;46318;52.716;6.444;2023-04-03T03:43:29;6.82;;;3.13;;
60472;SDS011;46318;52.716;6.444;2023-04-03T03:45:55;9.50;;;3.40;;
60472;SDS011;46318;52.716;6.444;2023-04-03T03:48:21;7.10;;;3.08;;
60472;SDS011;46318;52.716;6.444;2023-04-03T03:50:49;6.20;;;3.33;;
60472;SDS011;46318;52.716;6.444;2023-04-03T03:53:15;8.52;;;3.20;;
60472;SDS011;46318;52.716;6.444;2023-04-03T03:55:41;5.65;;;2.63;;
60472;SDS011;46318;52.716;6.444;2023-04-03T03:58:07;6.20;;;2.92;;
60472;SDS011;46318;52.716;6.444;2023-04-03T04:00:34;6.30;;;3.08;;
60472;SDS011;46318;52.716;6.444;2023-04-03T04:03:00;5.70;;;3.38;;
60472;SDS011;46318;52.716;6.444;2023-04-03T04:05:26;6.25;;;3.22;;
60472;SDS011;46318;52.716;6.444;2023-04-03T04:07:52;6.68;;;3.17;;
60472;SDS011;46318;52.716;6.444;2023-04-03T04:10:18;6.03;;;2.70;;
60472;SDS011;46318;52.716;6.444;2023-04-03T04:12:44;6.50;;;3.20;;
60472;SDS011;46318;52.716;6.444;2023-04-03T04:15:10;10.43;;;3.30;;
60472;SDS011;46318;52.716;6.444;2023-04-03T04:17:36;8.20;;;3.58;;
60472;SDS011;46318;52.716;6.444;2023-04-03T04:20:05;6.65;;;3.63;;
60472;SDS011;46318;52.716;6.444;2023-04-03T04:22:31;6.28;;;3.00;;
60472;SDS011;46318;52.716;6.444;2023-04-03T04:24:57;7.20;;;3.20;;
60472;SDS011;46318;52.716;6.444;2023-04-03T04:27:23;4.65;;;2.80;;
60472;SDS011;46318;52.716;6.444;2023-04-03T04:29:49;4.55;;;2.90;;
60472;SDS011;46318;52.716;6.444;2023-04-03T04:32:14;6.80;;;3.30;;
60472;SDS011;46318;52.716;6.444;2023-04-03T04:34:40;9.38;;;3.42;;
60472;SDS011;46318;52.716;6.444;2023-04-03T04:37:06;7.43;;;3.08;;
60472;SDS011;46318;52.716;6.444;2023-04-03T04:39:32;4.95;;;2.90;;
60472;SDS011;46318;52.716;6.444;2023-04-03T04:41:58;7.78;;;3.28;;
60472;SDS011;46318;52.716;6.444;2023-04-03T04:44:23;10.45;;;3.88;;
60472;SDS011;46318;52.716;6.444;2023-04-03T04:46:49;5.78;;;3.20;;
60472;SDS011;46318;52.716;6.444;2023-04-03T04:49:15;5.75;;;2.97;;
60472;SDS011;46318;52.716;6.444;2023-04-03T04:51:41;7.40;;;3.80;;
60472;SDS011;46318;52.716;6.444;2023-04-03T04:54:07;5.68;;;3.40;;
60472;SDS011;46318;52.716;6.444;2023-04-03T04:56:32;5.43;;;3.28;;
60472;SDS011;46318;52.716;6.444;2023-04-03T04:58:58;8.02;;;3.60;;
60472;SDS011;46318;52.716;6.444;2023-04-03T05:01:24;4.63;;;3.13;;
60472;SDS011;46318;52.716;6.444;2023-04-03T05:03:50;4.40;;;3.05;;
60472;SDS011;46318;52.716;6.444;2023-04-03T05:06:16;6.70;;;3.25;;
60472;SDS011;46318;52.716;6.444;2023-04-03T05:08:42;6.05;;;3.00;;
60472;SDS011;46318;52.716;6.444;2023-04-03T05:11:08;5.72;;;3.15;;
60472;SDS011;46318;52.716;6.444;2023-04-03T05:13:33;6.28;;;3.10;;
60472;SDS011;46318;52.716;6.444;2023-04-03T05:16:00;5.70;;;3.08;;
60472;SDS011;46318;52.716;6.444;2023-04-03T05:18:25;6.30;;;3.70;;
60472;SDS011;46318;52.716;6.444;2023-04-03T05:20:51;7.00;;;3.60;;
60472;SDS011;46318;52.716;6.444;2023-04-03T05:23:17;7.40;;;3.60;;
60472;SDS011;46318;52.716;6.444;2023-04-03T05:25:43;8.57;;;3.95;;
60472;SDS011;46318;52.716;6.444;2023-04-03T05:28:11;9.57;;;3.92;;
60472;SDS011;46318;52.716;6.444;2023-04-03T05:30:38;5.85;;;3.55;;
60472;SDS011;46318;52.716;6.444;2023-04-03T05:33:03;7.28;;;3.63;;
60472;SDS011;46318;52.716;6.444;2023-04-03T05:35:30;6.53;;;3.95;;
60472;SDS011;46318;52.716;6.444;2023-04-03T05:37:56;9.02;;;3.40;;
60472;SDS011;46318;52.716;6.444;2023-04-03T05:40:22;8.13;;;3.72;;
60472;SDS011;46318;52.716;6.444;2023-04-03T05:42:48;7.50;;;3.72;;
60472;SDS011;46318;52.716;6.444;2023-04-03T05:45:14;7.45;;;4.13;;
60472;SDS011;46318;52.716;6.444;2023-04-03T05:47:40;9.40;;;4.07;;
60472;SDS011;46318;52.716;6.444;2023-04-03T05:50:06;6.65;;;3.05;;
60472;SDS011;46318;52.716;6.444;2023-04-03T05:52:33;10.73;;;3.65;;
60472;SDS011;46318;52.716;6.444;2023-04-03T05:55:02;7.32;;;3.38;;
60472;SDS011;46318;52.716;6.444;2023-04-03T05:57:28;9.23;;;3.20;;
60472;SDS011;46318;52.716;6.444;2023-04-03T05:59:54;5.88;;;3.45;;
60472;SDS011;46318;52.716;6.444;2023-04-03T06:02:21;6.82;;;3.22;;
60472;SDS011;46318;52.716;6.444;2023-04-03T06:04:50;8.27;;;3.67;;
60472;SDS011;46318;52.716;6.444;2023-04-03T06:07:17;5.65;;;3.20;;
60472;SDS011;46318;52.716;6.444;2023-04-03T06:09:48;6.80;;;3.38;;
60472;SDS011;46318;52.716;6.444;2023-04-03T06:12:16;6.43;;;3.72;;
60472;SDS011;46318;52.716;6.444;2023-04-03T06:14:42;5.65;;;2.95;;
60472;SDS011;46318;52.716;6.444;2023-04-03T06:17:08;4.75;;;3.30;;
60472;SDS011;46318;52.716;6.444;2023-04-03T06:19:35;6.05;;;2.80;;
60472;SDS011;46318;52.716;6.444;2023-04-03T06:22:01;6.18;;;3.03;;
60472;SDS011;46318;52.716;6.444;2023-04-03T06:24:28;6.68;;;3.15;;
60472;SDS011;46318;52.716;6.444;2023-04-03T06:26:55;6.55;;;3.22;;
60472;SDS011;46318;52.716;6.444;2023-04-03T06:29:21;6.78;;;3.10;;
60472;SDS011;46318;52.716;6.444;2023-04-03T06:31:47;8.43;;;2.92;;
60472;SDS011;46318;52.716;6.444;2023-04-03T06:34:15;6.82;;;2.95;;
60472;SDS011;46318;52.716;6.444;2023-04-03T06:36:41;5.15;;;2.80;;
60472;SDS011;46318;52.716;6.444;2023-04-03T06:39:09;5.00;;;2.70;;
60472;SDS011;46318;52.716;6.444;2023-04-03T06:41:42;8.23;;;2.83;;
60472;SDS011;46318;52.716;6.444;2023-04-03T06:44:09;8.52;;;2.75;;
60472;SDS011;46318;52.716;6.444;2023-04-03T06:46:36;5.60;;;2.78;;
60472;SDS011;46318;52.716;6.444;2023-04-03T06:49:03;7.95;;;2.92;;
60472;SDS011;46318;52.716;6.444;2023-04-03T06:51:32;4.50;;;2.67;;
60472;SDS011;46318;52.716;6.444;2023-04-03T06:53:59;4.65;;;2.20;;
60472;SDS011;46318;52.716;6.444;2023-04-03T06:56:25;3.83;;;2.60;;
60472;SDS011;46318;52.716;6.444;2023-04-03T06:58:52;6.07;;;2.65;;
60472;SDS011;46318;52.716;6.444;2023-04-03T07:01:21;8.82;;;2.60;;
60472;SDS011;46318;52.716;6.444;2023-04-03T07:03:47;6.82;;;2.60;;
60472;SDS011;46318;52.716;6.444;2023-04-03T07:06:14;6.70;;;2.30;;
60472;SDS011;46318;52.716;6.444;2023-04-03T07:08:42;8.55;;;2.50;;
60472;SDS011;46318;52.716;6.444;2023-04-03T07:11:09;8.88;;;2.97;;
60472;SDS011;46318;52.716;6.444;2023-04-03T07:13:37;7.28;;;2.10;;
60472;SDS011;46318;52.716;6.444;2023-04-03T07:16:03;7.75;;;2.50;;
60472;SDS011;46318;52.716;6.444;2023-04-03T07:18:31;4.35;;;2.17;;
60472;SDS011;46318;52.716;6.444;2023-04-03T07:20:57;5.25;;;2.22;;
60472;SDS011;46318;52.716;6.444;2023-04-03T07:23:23;4.65;;;2.10;;
60472;SDS011;46318;52.716;6.444;2023-04-03T07:25:50;5.00;;;2.40;;
60472;SDS011;46318;52.716;6.444;2023-04-03T07:28:17;7.03;;;2.25;;
60472;SDS011;46318;52.716;6.444;2023-04-03T07:30:48;5.32;;;1.88;;
60472;SDS011;46318;52.716;6.444;2023-04-03T07:33:24;7.70;;;3.45;;
60472;SDS011;46318;52.716;6.444;2023-04-03T07:35:51;4.38;;;1.83;;
60472;SDS011;46318;52.716;6.444;2023-04-03T07:38:17;5.38;;;2.15;;
60472;SDS011;46318;52.716;6.444;2023-04-03T07:40:47;3.50;;;1.85;;
60472;SDS011;46318;52.716;6.444;2023-04-03T07:43:15;3.60;;;1.77;;
60472;SDS011;46318;52.716;6.444;2023-04-03T07:45:42;4.82;;;2.10;;
60472;SDS011;46318;52.716;6.444;2023-04-03T07:48:09;5.25;;;2.20;;
60472;SDS011;46318;52.716;6.444;2023-04-03T07:50:36;6.47;;;2.30;;
60472;SDS011;46318;52.716;6.444;2023-04-03T07:53:05;4.07;;;1.75;;
60472;SDS011;46318;52.716;6.444;2023-04-03T07:55:31;3.85;;;1.70;;
60472;SDS011;46318;52.716;6.444;2023-04-03T07:57:57;4.13;;;1.95;;
60472;SDS011;46318;52.716;6.444;2023-04-03T08:00:23;4.65;;;2.22;;
60472;SDS011;46318;52.716;6.444;2023-04-03T08:02:49;4.20;;;2.22;;
60472;SDS011;46318;52.716;6.444;2023-04-03T08:05:19;4.28;;;1.90;;
60472;SDS011;46318;52.716;6.444;2023-04-03T08:07:46;5.50;;;2.00;;
60472;SDS011;46318;52.716;6.444;2023-04-03T08:10:13;4.70;;;1.80;;
60472;SDS011;46318;52.716;6.444;2023-04-03T08:12:40;4.82;;;2.42;;
60472;SDS011;46318;52.716;6.444;2023-04-03T08:15:07;4.57;;;1.77;;
60472;SDS011;46318;52.716;6.444;2023-04-03T08:17:34;2.83;;;1.67;;
60472;SDS011;46318;52.716;6.444;2023-04-03T08:20:00;4.25;;;1.70;;
60472;SDS011;46318;52.716;6.444;2023-04-03T08:22:29;4.47;;;1.73;;
60472;SDS011;46318;52.716;6.444;2023-04-03T08:24:55;4.43;;;2.05;;
60472;SDS011;46318;52.716;6.444;2023-04-03T08:27:21;3.85;;;2.17;;
60472;SDS011;46318;52.716;6.444;2023-04-03T08:29:47;6.30;;;1.80;;
60472;SDS011;46318;52.716;6.444;2023-04-03T08:32:13;3.95;;;1.50;;
60472;SDS011;46318;52.716;6.444;2023-04-03T08:34:38;5.50;;;1.40;;
60472;SDS011;46318;52.716;6.444;2023-04-03T08:37:05;3.30;;;1.65;;
60472;SDS011;46318;52.716;6.444;2023-04-03T08:39:31;2.25;;;1.50;;
60472;SDS011;46318;52.716;6.444;2023-04-03T08:41:57;3.35;;;1.45;;
60472;SDS011;46318;52.716;6.444;2023-04-03T08:44:38;3.72;;;1.80;;
60472;SDS011;46318;52.716;6.444;2023-04-03T08:50:02;2.88;;;1.25;;
60472;SDS011;46318;52.716;6.444;2023-04-03T08:52:41;3.28;;;1.20;;
60472;SDS011;46318;52.716;6.444;2023-04-03T08:58:21;3.47;;;1.70;;
60472;SDS011;46318;52.716;6.444;2023-04-03T09:01:02;3.50;;;1.30;;
60472;SDS011;46318;52.716;6.444;2023-04-03T09:03:31;1.90;;;1.00;;
60472;SDS011;46318;52.716;6.444;2023-04-03T09:08:43;2.70;;;1.30;;
60472;SDS011;46318;52.716;6.444;2023-04-03T09:16:58;1.55;;;1.23;;
60472;SDS011;46318;52.716;6.444;2023-04-03T09:24:58;1.83;;;0.77;;
60472;SDS011;46318;52.716;6.444;2023-04-03T09:27:36;1.65;;;1.00;;
60472;SDS011;46318;52.716;6.444;2023-04-03T09:30:02;3.22;;;1.15;;
60472;SDS011;46318;52.716;6.444;2023-04-03T09:35:03;2.87;;;0.80;;
60472;SDS011;46318;52.716;6.444;2023-04-03T09:37:55;1.50;;;0.80;;
60472;SDS011;46318;52.716;6.444;2023-04-03T09:43:25;3.20;;;1.00;;
60472;SDS011;46318;52.716;6.444;2023-04-03T09:45:54;3.45;;;1.38;;
60472;SDS011;46318;52.716;6.444;2023-04-03T09:48:23;2.92;;;1.05;;
60472;SDS011;46318;52.716;6.444;2023-04-03T09:53:34;2.50;;;0.90;;
60472;SDS011;46318;52.716;6.444;2023-04-03T09:56:19;1.55;;;0.85;;
60472;SDS011;46318;52.716;6.444;2023-04-03T09:59:08;1.92;;;1.00;;
60472;SDS011;46318;52.716;6.444;2023-04-03T10:01:42;3.30;;;1.35;;
60472;SDS011;46318;52.716;6.444;2023-04-03T10:04:23;1.80;;;0.85;;
60472;SDS011;46318;52.716;6.444;2023-04-03T10:06:50;1.35;;;0.77;;
60472;SDS011;46318;52.716;6.444;2023-04-03T10:09:21;1.65;;;0.90;;
60472;SDS011;46318;52.716;6.444;2023-04-03T10:12:03;1.00;;;0.75;;
60472;SDS011;46318;52.716;6.444;2023-04-03T10:14:30;1.35;;;0.68;;
60472;SDS011;46318;52.716;6.444;2023-04-03T10:19:59;1.25;;;0.50;;
60472;SDS011;46318;52.716;6.444;2023-04-03T10:22:39;2.70;;;0.90;;
60472;SDS011;46318;52.716;6.444;2023-04-03T10:25:43;2.15;;;1.13;;
60472;SDS011;46318;52.716;6.444;2023-04-03T10:32:11;1.60;;;0.65;;
60472;SDS011;46318;52.716;6.444;2023-04-03T10:35:15;3.10;;;0.90;;
60472;SDS011;46318;52.716;6.444;2023-04-03T10:38:19;1.95;;;0.75;;
60472;SDS011;46318;52.716;6.444;2023-04-03T10:40:57;1.10;;;0.70;;
60472;SDS011;46318;52.716;6.444;2023-04-03T10:49:08;3.13;;;1.35;;
60472;SDS011;46318;52.716;6.444;2023-04-03T10:52:10;1.48;;;0.90;;
60472;SDS011;46318;52.716;6.444;2023-04-03T10:57:52;1.67;;;1.00;;
60472;SDS011;46318;52.716;6.444;2023-04-03T11:00:45;1.73;;;0.90;;
60472;SDS011;46318;52.716;6.444;2023-04-03T11:05:55;1.25;;;1.10;;
60472;SDS011;46318;52.716;6.444;2023-04-03T11:08:30;1.95;;;1.10;;
60472;SDS011;46318;52.716;6.444;2023-04-03T11:11:30;2.42;;;1.30;;
60472;SDS011;46318;52.716;6.444;2023-04-03T11:14:13;2.25;;;0.80;;
60472;SDS011;46318;52.716;6.444;2023-04-03T11:16:59;1.80;;;0.82;;
60472;SDS011;46318;52.716;6.444;2023-04-03T11:22:43;1.83;;;1.10;;
60472;SDS011;46318;52.716;6.444;2023-04-03T11:25:32;1.77;;;1.10;;
60472;SDS011;46318;52.716;6.444;2023-04-03T11:28:03;4.18;;;1.20;;
60472;SDS011;46318;52.716;6.444;2023-04-03T11:36:29;2.45;;;1.10;;
60472;SDS011;46318;52.716;6.444;2023-04-03T11:39:00;1.73;;;1.00;;
60472;SDS011;46318;52.716;6.444;2023-04-03T11:41:40;1.80;;;1.05;;
60472;SDS011;46318;52.716;6.444;2023-04-03T11:44:25;2.35;;;1.00;;
60472;SDS011;46318;52.716;6.444;2023-04-03T11:47:08;2.15;;;1.25;;
60472;SDS011;46318;52.716;6.444;2023-04-03T11:53:41;3.00;;;1.00;;
60472;SDS011;46318;52.716;6.444;2023-04-03T11:58:24;2.53;;;1.00;;
60472;SDS011;46318;52.716;6.444;2023-04-03T12:18:58;3.00;;;1.20;;
60472;SDS011;46318;52.716;6.444;2023-04-03T12:29:27;2.20;;;1.20;;
60472;SDS011;46318;52.716;6.444;2023-04-03T12:42:05;4.72;;;1.38;;
60472;SDS011;46318;52.716;6.444;2023-04-03T12:44:23;2.55;;;1.20;;
60472;SDS011;46318;52.716;6.444;2023-04-03T12:47:16;3.58;;;1.40;;
60472;SDS011;46318;52.716;6.444;2023-04-03T12:49:57;1.27;;;1.10;;
60472;SDS011;46318;52.716;6.444;2023-04-03T12:52:32;2.97;;;1.20;;
60472;SDS011;46318;52.716;6.444;2023-04-03T12:55:17;1.95;;;1.42;;
60472;SDS011;46318;52.716;6.444;2023-04-03T12:57:45;3.17;;;1.10;;
60472;SDS011;46318;52.716;6.444;2023-04-03T13:00:18;3.13;;;1.20;;
60472;SDS011;46318;52.716;6.444;2023-04-03T13:02:55;3.22;;;1.33;;
60472;SDS011;46318;52.716;6.444;2023-04-03T13:05:21;1.65;;;1.10;;
60472;SDS011;46318;52.716;6.444;2023-04-03T13:07:49;2.40;;;1.50;;
60472;SDS011;46318;52.716;6.444;2023-04-03T13:10:22;1.95;;;1.30;;
60472;SDS011;46318;52.716;6.444;2023-04-03T13:21:13;2.45;;;1.60;;
60472;SDS011;46318;52.716;6.444;2023-04-03T13:23:46;1.92;;;1.23;;
60472;SDS011;46318;52.716;6.444;2023-04-03T13:26:17;4.18;;;1.75;;
60472;SDS011;46318;52.716;6.444;2023-04-03T13:28:45;3.60;;;1.45;;
60472;SDS011;46318;52.716;6.444;2023-04-03T13:33:39;2.45;;;1.23;;
60472;SDS011;46318;52.716;6.444;2023-04-03T13:36:22;1.80;;;1.08;;
60472;SDS011;46318;52.716;6.444;2023-04-03T13:41:36;3.05;;;1.50;;
60472;SDS011;46318;52.716;6.444;2023-04-03T13:50:02;2.47;;;1.70;;
60472;SDS011;46318;52.716;6.444;2023-04-03T13:57:57;1.90;;;1.35;;
60472;SDS011;46318;52.716;6.444;2023-04-03T14:00:33;1.60;;;1.33;;
60472;SDS011;46318;52.716;6.444;2023-04-03T14:03:33;2.13;;;1.30;;
60472;SDS011;46318;52.716;6.444;2023-04-03T14:06:13;3.05;;;1.60;;
60472;SDS011;46318;52.716;6.444;2023-04-03T14:08:41;1.60;;;1.40;;
60472;SDS011;46318;52.716;6.444;2023-04-03T14:11:11;3.00;;;1.42;;
60472;SDS011;46318;52.716;6.444;2023-04-03T14:13:44;2.10;;;1.10;;
60472;SDS011;46318;52.716;6.444;2023-04-03T14:16:23;2.13;;;1.50;;
60472;SDS011;46318;52.716;6.444;2023-04-03T14:18:52;2.85;;;1.60;;
60472;SDS011;46318;52.716;6.444;2023-04-03T14:21:19;2.83;;;1.58;;
60472;SDS011;46318;52.716;6.444;2023-04-03T14:23:46;4.63;;;1.48;;
60472;SDS011;46318;52.716;6.444;2023-04-03T14:26:14;4.63;;;2.72;;
60472;SDS011;46318;52.716;6.444;2023-04-03T14:28:47;2.88;;;1.48;;
60472;SDS011;46318;52.716;6.444;2023-04-03T14:31:17;3.08;;;1.50;;
60472;SDS011;46318;52.716;6.444;2023-04-03T14:33:44;3.33;;;1.55;;
60472;SDS011;46318;52.716;6.444;2023-04-03T14:36:14;2.45;;;1.60;;
60472;SDS011;46318;52.716;6.444;2023-04-03T14:38:46;2.22;;;1.45;;
60472;SDS011;46318;52.716;6.444;2023-04-03T14:41:15;3.78;;;1.90;;
60472;SDS011;46318;52.716;6.444;2023-04-03T14:43:45;2.37;;;1.47;;
60472;SDS011;46318;52.716;6.444;2023-04-03T14:46:16;4.13;;;1.85;;
60472;SDS011;46318;52.716;6.444;2023-04-03T14:48:47;3.00;;;1.75;;
60472;SDS011;46318;52.716;6.444;2023-04-03T14:51:14;3.42;;;1.50;;
60472;SDS011;46318;52.716;6.444;2023-04-03T14:53:40;3.25;;;1.75;;
60472;SDS011;46318;52.716;6.444;2023-04-03T14:56:18;3.03;;;1.60;;
60472;SDS011;46318;52.716;6.444;2023-04-03T14:58:49;1.90;;;1.70;;
60472;SDS011;46318;52.716;6.444;2023-04-03T15:01:22;3.25;;;1.65;;
60472;SDS011;46318;52.716;6.444;2023-04-03T15:03:48;2.83;;;1.50;;
60472;SDS011;46318;52.716;6.444;2023-04-03T15:06:14;2.55;;;1.77;;
60472;SDS011;46318;52.716;6.444;2023-04-03T15:08:41;3.72;;;1.63;;
60472;SDS011;46318;52.716;6.444;2023-04-03T15:11:09;1.52;;;1.38;;
60472;SDS011;46318;52.716;6.444;2023-04-03T15:13:36;2.20;;;1.50;;
60472;SDS011;46318;52.716;6.444;2023-04-03T15:16:04;3.45;;;1.55;;
60472;SDS011;46318;52.716;6.444;2023-04-03T15:18:38;2.33;;;1.55;;
60472;SDS011;46318;52.716;6.444;2023-04-03T15:21:04;3.38;;;1.70;;
60472;SDS011;46318;52.716;6.444;2023-04-03T15:23:30;2.50;;;1.77;;
60472;SDS011;46318;52.716;6.444;2023-04-03T15:25:57;2.67;;;1.67;;
60472;SDS011;46318;52.716;6.444;2023-04-03T15:28:26;2.45;;;1.65;;
60472;SDS011;46318;52.716;6.444;2023-04-03T15:30:54;2.53;;;1.50;;
60472;SDS011;46318;52.716;6.444;2023-04-03T15:33:20;3.80;;;2.10;;
60472;SDS011;46318;52.716;6.444;2023-04-03T15:35:46;3.58;;;1.90;;
60472;SDS011;46318;52.716;6.444;2023-04-03T15:38:12;2.58;;;1.67;;
60472;SDS011;46318;52.716;6.444;2023-04-03T15:40:38;2.70;;;1.73;;
60472;SDS011;46318;52.716;6.444;2023-04-03T15:43:04;2.20;;;1.83;;
60472;SDS011;46318;52.716;6.444;2023-04-03T15:45:32;3.60;;;1.92;;
60472;SDS011;46318;52.716;6.444;2023-04-03T15:48:01;3.80;;;1.80;;
60472;SDS011;46318;52.716;6.444;2023-04-03T15:50:27;1.98;;;1.77;;
60472;SDS011;46318;52.716;6.444;2023-04-03T15:52:53;2.13;;;1.60;;
60472;SDS011;46318;52.716;6.444;2023-04-03T15:55:21;2.78;;;2.00;;
60472;SDS011;46318;52.716;6.444;2023-04-03T15:57:48;3.92;;;1.60;;
60472;SDS011;46318;52.716;6.444;2023-04-03T16:00:14;2.45;;;1.42;;
60472;SDS011;46318;52.716;6.444;2023-04-03T16:02:40;1.83;;;1.45;;
60472;SDS011;46318;52.716;6.444;2023-04-03T16:05:08;2.97;;;1.80;;
60472;SDS011;46318;52.716;6.444;2023-04-03T16:07:36;5.07;;;2.20;;
60472;SDS011;46318;52.716;6.444;2023-04-03T16:10:04;2.70;;;1.77;;
60472;SDS011;46318;52.716;6.444;2023-04-03T16:12:32;3.65;;;2.20;;
60472;SDS011;46318;52.716;6.444;2023-04-03T16:14:58;2.90;;;1.67;;
60472;SDS011;46318;52.716;6.444;2023-04-03T16:17:23;3.92;;;1.98;;
60472;SDS011;46318;52.716;6.444;2023-04-03T16:19:51;1.88;;;1.60;;
60472;SDS011;46318;52.716;6.444;2023-04-03T16:22:17;3.63;;;1.83;;
60472;SDS011;46318;52.716;6.444;2023-04-03T16:24:43;3.13;;;1.65;;
60472;SDS011;46318;52.716;6.444;2023-04-03T16:27:09;3.30;;;2.28;;
60472;SDS011;46318;52.716;6.444;2023-04-03T16:29:35;3.17;;;1.70;;
60472;SDS011;46318;52.716;6.444;2023-04-03T16:32:01;3.55;;;1.90;;
60472;SDS011;46318;52.716;6.444;2023-04-03T16:34:27;2.50;;;1.88;;
60472;SDS011;46318;52.716;6.444;2023-04-03T16:36:55;2.42;;;1.85;;
60472;SDS011;46318;52.716;6.444;2023-04-03T16:39:21;4.53;;;2.67;;
60472;SDS011;46318;52.716;6.444;2023-04-03T16:41:47;3.63;;;2.00;;
60472;SDS011;46318;52.716;6.444;2023-04-03T16:44:13;3.20;;;1.92;;
60472;SDS011;46318;52.716;6.444;2023-04-03T16:46:39;3.60;;;1.90;;
60472;SDS011;46318;52.716;6.444;2023-04-03T16:49:05;3.05;;;1.90;;
60472;SDS011;46318;52.716;6.444;2023-04-03T16:51:31;3.53;;;2.10;;
60472;SDS011;46318;52.716;6.444;2023-04-03T16:53:57;3.28;;;1.80;;
60472;SDS011;46318;52.716;6.444;2023-04-03T16:56:23;4.03;;;1.83;;
60472;SDS011;46318;52.716;6.444;2023-04-03T16:58:52;3.88;;;1.90;;
60472;SDS011;46318;52.716;6.444;2023-04-03T17:01:19;2.95;;;1.80;;
60472;SDS011;46318;52.716;6.444;2023-04-03T17:03:46;3.22;;;2.17;;
60472;SDS011;46318;52.716;6.444;2023-04-03T17:06:16;2.75;;;1.50;;
60472;SDS011;46318;52.716;6.444;2023-04-03T17:08:45;3.30;;;2.05;;